sensor_id;sensor_type;location;lat;lon;timestamp;temperature;humidity
4279;DHT22;2153;47.744;10.580;2022-08-19T00:00:38;15.50;99.90
4279;DHT22;2153;47.744;10.580;2022-08-19T00:03:06;15.50;99.90
4279;DHT22;2153;47.744;10.580;2022-08-19T00:05:33;15.50;99.90
4279;DHT22;2153;47.744;10.580;2022-08-19T00:08:00;15.50;99.90
4279;DHT22;2153;47.744;10.580;2022-08-19T00:10:27;15.50;99.90
4279;DHT22;2153;47.744;10.580;2022-08-19T00:12:53;15.50;99.90
4279;DHT22;2153;47.744;10.580;2022-08-19T00:15:22;15.50;99.90
4279;DHT22;2153;47.744;10.580;2022-08-19T00:17:49;15.50;99.90
4279;DHT22;2153;47.744;10.580;2022-08-19T00:20:19;15.50;99.90
4279;DHT22;2153;47.744;10.580;2022-08-19T00:22:47;15.50;99.90
4279;DHT22;2153;47.744;10.580;2022-08-19T00:25:15;15.60;99.90
4279;DHT22;2153;47.744;10.580;2022-08-19T00:27:42;15.60;99.90
4279;DHT22;2153;47.744;10.580;2022-08-19T00:30:09;15.60;99.90
4279;DHT22;2153;47.744;10.580;2022-08-19T00:32:38;15.60;99.90
4279;DHT22;2153;47.744;10.580;2022-08-19T00:35:06;15.60;99.90
4279;DHT22;2153;47.744;10.580;2022-08-19T00:37:33;15.60;99.90
4279;DHT22;2153;47.744;10.580;2022-08-19T00:40:01;15.60;99.90
4279;DHT22;2153;47.744;10.580;2022-08-19T00:42:29;15.60;99.90
4279;DHT22;2153;47.744;10.580;2022-08-19T00:44:55;15.60;99.90
4279;DHT22;2153;47.744;10.580;2022-08-19T00:47:22;15.60;99.90
4279;DHT22;2153;47.744;10.580;2022-08-19T00:49:54;15.60;99.90
4279;DHT22;2153;47.744;10.580;2022-08-19T00:52:28;15.60;99.90
4279;DHT22;2153;47.744;10.580;2022-08-19T00:54:56;15.60;99.90
4279;DHT22;2153;47.744;10.580;2022-08-19T00:57:27;15.60;99.90
4279;DHT22;2153;47.744;10.580;2022-08-19T00:59:56;15.60;99.90
4279;DHT22;2153;47.744;10.580;2022-08-19T01:02:24;15.50;99.90
4279;DHT22;2153;47.744;10.580;2022-08-19T01:04:52;15.60;99.90
4279;DHT22;2153;47.744;10.580;2022-08-19T01:07:19;15.50;99.90
4279;DHT22;2153;47.744;10.580;2022-08-19T01:09:46;15.60;99.90
4279;DHT22;2153;47.744;10.580;2022-08-19T01:12:13;15.50;99.90
4279;DHT22;2153;47.744;10.580;2022-08-19T01:14:40;15.60;99.90
4279;DHT22;2153;47.744;10.580;2022-08-19T01:17:08;15.50;99.90
4279;DHT22;2153;47.744;10.580;2022-08-19T01:19:37;15.50;99.90
4279;DHT22;2153;47.744;10.580;2022-08-19T01:22:12;15.50;99.90
4279;DHT22;2153;47.744;10.580;2022-08-19T01:24:41;15.50;99.90
4279;DHT22;2153;47.744;10.580;2022-08-19T01:27:08;15.50;99.90
4279;DHT22;2153;47.744;10.580;2022-08-19T01:29:38;15.50;99.90
4279;DHT22;2153;47.744;10.580;2022-08-19T01:32:05;15.50;99.90
4279;DHT22;2153;47.744;10.580;2022-08-19T01:34:33;15.50;99.90
4279;DHT22;2153;47.744;10.580;2022-08-19T01:37:06;15.50;99.90
4279;DHT22;2153;47.744;10.580;2022-08-19T01:39:36;15.50;99.90
4279;DHT22;2153;47.744;10.580;2022-08-19T01:42:05;15.60;99.90
4279;DHT22;2153;47.744;10.580;2022-08-19T01:44:35;15.60;99.90
4279;DHT22;2153;47.744;10.580;2022-08-19T01:47:03;15.60;99.90
4279;DHT22;2153;47.744;10.580;2022-08-19T01:49:30;15.60;99.90
4279;DHT22;2153;47.744;10.580;2022-08-19T01:51:59;15.60;99.90
4279;DHT22;2153;47.744;10.580;2022-08-19T01:54:26;15.60;99.90
4279;DHT22;2153;47.744;10.580;2022-08-19T01:56:57;15.60;99.90
4279;DHT22;2153;47.744;10.580;2022-08-19T01:59:25;15.60;99.90
4279;DHT22;2153;47.744;10.580;2022-08-19T02:01:52;15.60;99.90
4279;DHT22;2153;47.744;10.580;2022-08-19T02:04:19;15.60;99.90
4279;DHT22;2153;47.744;10.580;2022-08-19T02:06:46;15.50;99.90
4279;DHT22;2153;47.744;10.580;2022-08-19T02:09:13;15.50;99.90
4279;DHT22;2153;47.744;10.580;2022-08-19T02:11:41;15.50;99.90
4279;DHT22;2153;47.744;10.580;2022-08-19T02:14:08;15.40;99.90
4279;DHT22;2153;47.744;10.580;2022-08-19T02:16:37;15.40;99.90
4279;DHT22;2153;47.744;10.580;2022-08-19T02:19:05;15.40;99.90
4279;DHT22;2153;47.744;10.580;2022-08-19T02:21:33;15.40;99.90
4279;DHT22;2153;47.744;10.580;2022-08-19T02:24:01;15.40;99.90
4279;DHT22;2153;47.744;10.580;2022-08-19T02:26:27;15.40;99.90
4279;DHT22;2153;47.744;10.580;2022-08-19T02:28:55;15.40;99.90
4279;DHT22;2153;47.744;10.580;2022-08-19T02:31:24;15.30;99.90
4279;DHT22;2153;47.744;10.580;2022-08-19T02:33:52;15.30;99.90
4279;DHT22;2153;47.744;10.580;2022-08-19T02:36:19;15.30;99.90
4279;DHT22;2153;47.744;10.580;2022-08-19T02:38:46;15.30;99.90
4279;DHT22;2153;47.744;10.580;2022-08-19T02:41:16;15.30;99.90
4279;DHT22;2153;47.744;10.580;2022-08-19T02:43:43;15.20;99.90
4279;DHT22;2153;47.744;10.580;2022-08-19T02:46:14;15.20;99.90
4279;DHT22;2153;47.744;10.580;2022-08-19T02:48:46;15.20;99.90
4279;DHT22;2153;47.744;10.580;2022-08-19T02:51:17;15.20;99.90
4279;DHT22;2153;47.744;10.580;2022-08-19T02:53:44;15.20;99.90
4279;DHT22;2153;47.744;10.580;2022-08-19T02:56:11;15.20;99.90
4279;DHT22;2153;47.744;10.580;2022-08-19T02:58:38;15.20;99.90
4279;DHT22;2153;47.744;10.580;2022-08-19T03:01:05;15.20;99.90
4279;DHT22;2153;47.744;10.580;2022-08-19T03:03:32;15.20;99.90
4279;DHT22;2153;47.744;10.580;2022-08-19T03:06:07;15.20;99.90
4279;DHT22;2153;47.744;10.580;2022-08-19T03:08:36;15.20;99.90
4279;DHT22;2153;47.744;10.580;2022-08-19T03:11:04;15.20;99.90
4279;DHT22;2153;47.744;10.580;2022-08-19T03:13:31;15.20;99.90
4279;DHT22;2153;47.744;10.580;2022-08-19T03:15:57;15.20;99.90
4279;DHT22;2153;47.744;10.580;2022-08-19T03:18:24;15.20;99.90
4279;DHT22;2153;47.744;10.580;2022-08-19T03:20:52;15.20;99.90
4279;DHT22;2153;47.744;10.580;2022-08-19T03:23:20;15.20;99.90
4279;DHT22;2153;47.744;10.580;2022-08-19T03:25:50;15.20;99.90
4279;DHT22;2153;47.744;10.580;2022-08-19T03:28:17;15.20;99.90
4279;DHT22;2153;47.744;10.580;2022-08-19T03:30:55;15.20;99.90
4279;DHT22;2153;47.744;10.580;2022-08-19T03:33:23;15.20;99.90
4279;DHT22;2153;47.744;10.580;2022-08-19T03:36:00;15.20;99.90
4279;DHT22;2153;47.744;10.580;2022-08-19T03:38:27;15.10;99.90
4279;DHT22;2153;47.744;10.580;2022-08-19T03:40:55;15.00;99.90
4279;DHT22;2153;47.744;10.580;2022-08-19T03:43:22;15.00;99.90
4279;DHT22;2153;47.744;10.580;2022-08-19T03:45:49;14.90;99.90
4279;DHT22;2153;47.744;10.580;2022-08-19T03:48:16;14.80;99.90
4279;DHT22;2153;47.744;10.580;2022-08-19T03:50:43;14.70;99.90
4279;DHT22;2153;47.744;10.580;2022-08-19T03:53:10;14.60;99.90
4279;DHT22;2153;47.744;10.580;2022-08-19T03:55:39;14.60;99.90
4279;DHT22;2153;47.744;10.580;2022-08-19T03:58:07;14.50;99.90
4279;DHT22;2153;47.744;10.580;2022-08-19T04:00:36;14.50;99.90
4279;DHT22;2153;47.744;10.580;2022-08-19T04:03:03;14.50;99.90
4279;DHT22;2153;47.744;10.580;2022-08-19T04:05:30;14.50;99.90
4279;DHT22;2153;47.744;10.580;2022-08-19T04:07:56;14.60;99.90
4279;DHT22;2153;47.744;10.580;2022-08-19T04:10:24;14.60;99.90
4279;DHT22;2153;47.744;10.580;2022-08-19T04:12:51;14.50;99.90
4279;DHT22;2153;47.744;10.580;2022-08-19T04:15:19;14.60;99.90
4279;DHT22;2153;47.744;10.580;2022-08-19T04:17:46;14.60;99.90
4279;DHT22;2153;47.744;10.580;2022-08-19T04:20:13;14.60;99.90
4279;DHT22;2153;47.744;10.580;2022-08-19T04:22:40;14.60;99.90
4279;DHT22;2153;47.744;10.580;2022-08-19T04:25:07;14.50;99.90
4279;DHT22;2153;47.744;10.580;2022-08-19T04:27:34;14.60;99.90
4279;DHT22;2153;47.744;10.580;2022-08-19T04:30:01;14.60;99.90
4279;DHT22;2153;47.744;10.580;2022-08-19T04:32:29;14.60;99.90
4279;DHT22;2153;47.744;10.580;2022-08-19T04:34:57;14.60;99.90
4279;DHT22;2153;47.744;10.580;2022-08-19T04:37:24;14.60;99.90
4279;DHT22;2153;47.744;10.580;2022-08-19T04:39:52;14.50;99.90
4279;DHT22;2153;47.744;10.580;2022-08-19T04:42:36;14.40;99.90
4279;DHT22;2153;47.744;10.580;2022-08-19T04:45:07;14.40;99.90
4279;DHT22;2153;47.744;10.580;2022-08-19T04:47:37;14.40;99.90
4279;DHT22;2153;47.744;10.580;2022-08-19T04:50:05;14.40;99.90
4279;DHT22;2153;47.744;10.580;2022-08-19T04:52:33;14.50;99.90
4279;DHT22;2153;47.744;10.580;2022-08-19T04:54:59;14.50;99.90
4279;DHT22;2153;47.744;10.580;2022-08-19T04:57:26;14.50;99.90
4279;DHT22;2153;47.744;10.580;2022-08-19T04:59:54;14.60;99.90
4279;DHT22;2153;47.744;10.580;2022-08-19T05:02:22;14.70;99.90
4279;DHT22;2153;47.744;10.580;2022-08-19T05:04:55;14.80;99.90
4279;DHT22;2153;47.744;10.580;2022-08-19T05:07:23;14.80;99.90
4279;DHT22;2153;47.744;10.580;2022-08-19T05:09:49;14.90;99.90
4279;DHT22;2153;47.744;10.580;2022-08-19T05:12:16;15.00;99.90
4279;DHT22;2153;47.744;10.580;2022-08-19T05:14:43;15.10;99.90
4279;DHT22;2153;47.744;10.580;2022-08-19T05:17:13;15.20;99.90
4279;DHT22;2153;47.744;10.580;2022-08-19T05:19:40;15.30;99.90
4279;DHT22;2153;47.744;10.580;2022-08-19T05:22:25;15.40;99.90
4279;DHT22;2153;47.744;10.580;2022-08-19T05:25:03;15.50;99.90
4279;DHT22;2153;47.744;10.580;2022-08-19T05:27:30;15.60;99.90
4279;DHT22;2153;47.744;10.580;2022-08-19T05:29:57;15.70;99.90
4279;DHT22;2153;47.744;10.580;2022-08-19T05:32:24;15.80;99.90
4279;DHT22;2153;47.744;10.580;2022-08-19T05:34:51;15.80;99.90
4279;DHT22;2153;47.744;10.580;2022-08-19T05:37:18;15.80;99.90
4279;DHT22;2153;47.744;10.580;2022-08-19T05:39:46;15.90;99.90
4279;DHT22;2153;47.744;10.580;2022-08-19T05:42:14;15.90;99.90
4279;DHT22;2153;47.744;10.580;2022-08-19T05:44:43;15.90;99.90
4279;DHT22;2153;47.744;10.580;2022-08-19T05:47:11;16.00;99.90
4279;DHT22;2153;47.744;10.580;2022-08-19T05:49:40;16.10;99.90
4279;DHT22;2153;47.744;10.580;2022-08-19T05:52:10;16.20;99.90
4279;DHT22;2153;47.744;10.580;2022-08-19T05:54:37;16.30;99.90
4279;DHT22;2153;47.744;10.580;2022-08-19T05:57:07;16.20;99.90
4279;DHT22;2153;47.744;10.580;2022-08-19T05:59:34;16.10;99.90
4279;DHT22;2153;47.744;10.580;2022-08-19T06:02:03;16.00;99.90
4279;DHT22;2153;47.744;10.580;2022-08-19T06:04:30;16.10;99.90
4279;DHT22;2153;47.744;10.580;2022-08-19T06:06:57;16.10;99.90
4279;DHT22;2153;47.744;10.580;2022-08-19T06:09:23;16.10;99.90
4279;DHT22;2153;47.744;10.580;2022-08-19T06:11:52;16.10;99.90
4279;DHT22;2153;47.744;10.580;2022-08-19T06:14:23;16.10;99.90
4279;DHT22;2153;47.744;10.580;2022-08-19T06:16:50;16.20;99.90
4279;DHT22;2153;47.744;10.580;2022-08-19T06:19:19;16.20;99.90
4279;DHT22;2153;47.744;10.580;2022-08-19T06:21:48;16.10;99.90
4279;DHT22;2153;47.744;10.580;2022-08-19T06:24:18;16.10;99.90
4279;DHT22;2153;47.744;10.580;2022-08-19T06:26:47;16.20;99.90
4279;DHT22;2153;47.744;10.580;2022-08-19T06:29:16;16.30;99.90
4279;DHT22;2153;47.744;10.580;2022-08-19T06:31:47;16.30;99.90
4279;DHT22;2153;47.744;10.580;2022-08-19T06:34:15;16.40;99.90
4279;DHT22;2153;47.744;10.580;2022-08-19T06:36:45;16.40;99.90
4279;DHT22;2153;47.744;10.580;2022-08-19T06:39:14;16.50;99.90
4279;DHT22;2153;47.744;10.580;2022-08-19T06:41:43;16.60;99.90
4279;DHT22;2153;47.744;10.580;2022-08-19T06:44:11;16.60;99.90
4279;DHT22;2153;47.744;10.580;2022-08-19T06:46:38;16.60;99.90
4279;DHT22;2153;47.744;10.580;2022-08-19T06:49:07;16.60;99.90
4279;DHT22;2153;47.744;10.580;2022-08-19T06:51:40;16.70;99.90
4279;DHT22;2153;47.744;10.580;2022-08-19T06:54:07;17.00;99.90
4279;DHT22;2153;47.744;10.580;2022-08-19T06:56:34;17.30;99.90
4279;DHT22;2153;47.744;10.580;2022-08-19T06:59:02;17.50;99.90
4279;DHT22;2153;47.744;10.580;2022-08-19T07:01:34;17.50;99.90
4279;DHT22;2153;47.744;10.580;2022-08-19T07:04:03;17.50;99.90
4279;DHT22;2153;47.744;10.580;2022-08-19T07:06:31;17.50;99.90
4279;DHT22;2153;47.744;10.580;2022-08-19T07:08:58;17.50;99.90
4279;DHT22;2153;47.744;10.580;2022-08-19T07:11:25;17.50;99.90
4279;DHT22;2153;47.744;10.580;2022-08-19T07:13:51;17.40;99.90
4279;DHT22;2153;47.744;10.580;2022-08-19T07:16:19;17.40;99.90
4279;DHT22;2153;47.744;10.580;2022-08-19T07:18:47;17.40;99.90
4279;DHT22;2153;47.744;10.580;2022-08-19T07:21:16;17.40;99.90
4279;DHT22;2153;47.744;10.580;2022-08-19T07:23:45;17.40;99.90
4279;DHT22;2153;47.744;10.580;2022-08-19T07:26:15;17.40;99.90
4279;DHT22;2153;47.744;10.580;2022-08-19T07:28:42;17.50;99.90
4279;DHT22;2153;47.744;10.580;2022-08-19T07:31:10;17.50;99.90
4279;DHT22;2153;47.744;10.580;2022-08-19T07:33:37;17.50;99.90
4279;DHT22;2153;47.744;10.580;2022-08-19T07:36:05;17.40;99.90
4279;DHT22;2153;47.744;10.580;2022-08-19T07:38:33;17.40;99.90
4279;DHT22;2153;47.744;10.580;2022-08-19T07:41:01;17.40;99.90
4279;DHT22;2153;47.744;10.580;2022-08-19T07:43:28;17.40;99.90
4279;DHT22;2153;47.744;10.580;2022-08-19T07:45:55;17.40;99.90
4279;DHT22;2153;47.744;10.580;2022-08-19T07:48:22;17.30;99.90
4279;DHT22;2153;47.744;10.580;2022-08-19T07:50:51;17.30;99.90
4279;DHT22;2153;47.744;10.580;2022-08-19T07:53:18;17.40;99.90
4279;DHT22;2153;47.744;10.580;2022-08-19T07:55:45;17.40;99.90
4279;DHT22;2153;47.744;10.580;2022-08-19T07:58:15;17.40;99.90
4279;DHT22;2153;47.744;10.580;2022-08-19T08:00:44;17.50;99.90
4279;DHT22;2153;47.744;10.580;2022-08-19T08:03:13;17.50;99.90
4279;DHT22;2153;47.744;10.580;2022-08-19T08:05:40;17.60;99.90
4279;DHT22;2153;47.744;10.580;2022-08-19T08:08:24;17.60;99.90
4279;DHT22;2153;47.744;10.580;2022-08-19T08:11:08;17.70;99.90
4279;DHT22;2153;47.744;10.580;2022-08-19T08:13:37;17.70;99.90
4279;DHT22;2153;47.744;10.580;2022-08-19T08:16:06;17.70;99.90
4279;DHT22;2153;47.744;10.580;2022-08-19T08:18:34;17.60;99.90
4279;DHT22;2153;47.744;10.580;2022-08-19T08:21:07;17.50;99.90
4279;DHT22;2153;47.744;10.580;2022-08-19T08:23:34;17.40;99.90
4279;DHT22;2153;47.744;10.580;2022-08-19T08:26:01;17.30;99.90
4279;DHT22;2153;47.744;10.580;2022-08-19T08:28:30;17.30;99.90
4279;DHT22;2153;47.744;10.580;2022-08-19T08:30:58;17.30;99.90
4279;DHT22;2153;47.744;10.580;2022-08-19T08:33:28;17.30;99.90
4279;DHT22;2153;47.744;10.580;2022-08-19T08:35:55;17.40;99.90
4279;DHT22;2153;47.744;10.580;2022-08-19T08:38:22;17.40;99.90
4279;DHT22;2153;47.744;10.580;2022-08-19T08:40:50;17.40;99.90
4279;DHT22;2153;47.744;10.580;2022-08-19T08:43:24;17.50;99.90
4279;DHT22;2153;47.744;10.580;2022-08-19T08:45:59;17.50;99.90
4279;DHT22;2153;47.744;10.580;2022-08-19T08:48:35;17.50;99.90
4279;DHT22;2153;47.744;10.580;2022-08-19T08:51:04;17.60;99.90
4279;DHT22;2153;47.744;10.580;2022-08-19T08:53:34;17.60;99.90
4279;DHT22;2153;47.744;10.580;2022-08-19T08:56:03;17.60;99.90
4279;DHT22;2153;47.744;10.580;2022-08-19T08:58:43;17.70;99.90
4279;DHT22;2153;47.744;10.580;2022-08-19T09:01:12;17.70;99.90
4279;DHT22;2153;47.744;10.580;2022-08-19T09:03:40;17.70;99.90
4279;DHT22;2153;47.744;10.580;2022-08-19T09:06:12;17.70;99.90
4279;DHT22;2153;47.744;10.580;2022-08-19T09:08:47;17.70;99.90
4279;DHT22;2153;47.744;10.580;2022-08-19T09:11:22;17.60;99.90
4279;DHT22;2153;47.744;10.580;2022-08-19T09:14:01;17.50;99.90
4279;DHT22;2153;47.744;10.580;2022-08-19T09:16:31;17.50;99.90
4279;DHT22;2153;47.744;10.580;2022-08-19T09:19:01;17.50;99.90
4279;DHT22;2153;47.744;10.580;2022-08-19T09:21:28;17.30;99.90
4279;DHT22;2153;47.744;10.580;2022-08-19T09:23:55;17.30;99.90
4279;DHT22;2153;47.744;10.580;2022-08-19T09:26:24;17.20;99.90
4279;DHT22;2153;47.744;10.580;2022-08-19T09:28:52;17.20;99.90
4279;DHT22;2153;47.744;10.580;2022-08-19T09:31:21;17.20;99.90
4279;DHT22;2153;47.744;10.580;2022-08-19T09:33:51;17.20;99.90
4279;DHT22;2153;47.744;10.580;2022-08-19T09:36:20;17.20;99.90
4279;DHT22;2153;47.744;10.580;2022-08-19T09:38:48;17.20;99.90
4279;DHT22;2153;47.744;10.580;2022-08-19T09:41:16;17.30;99.90
4279;DHT22;2153;47.744;10.580;2022-08-19T09:43:46;17.30;99.90
4279;DHT22;2153;47.744;10.580;2022-08-19T09:46:13;17.30;99.90
4279;DHT22;2153;47.744;10.580;2022-08-19T09:48:42;17.30;99.90
4279;DHT22;2153;47.744;10.580;2022-08-19T09:51:13;17.20;99.90
4279;DHT22;2153;47.744;10.580;2022-08-19T09:53:42;17.20;99.90
4279;DHT22;2153;47.744;10.580;2022-08-19T09:56:09;17.10;99.90
4279;DHT22;2153;47.744;10.580;2022-08-19T09:58:37;17.10;99.90
4279;DHT22;2153;47.744;10.580;2022-08-19T10:01:05;17.00;99.90
4279;DHT22;2153;47.744;10.580;2022-08-19T10:03:33;16.90;99.90
4279;DHT22;2153;47.744;10.580;2022-08-19T10:06:03;16.90;99.90
4279;DHT22;2153;47.744;10.580;2022-08-19T10:08:33;16.80;99.90
4279;DHT22;2153;47.744;10.580;2022-08-19T10:11:00;16.80;99.90
4279;DHT22;2153;47.744;10.580;2022-08-19T10:13:30;16.80;99.90
4279;DHT22;2153;47.744;10.580;2022-08-19T10:16:03;16.80;99.90
4279;DHT22;2153;47.744;10.580;2022-08-19T10:18:30;16.80;99.90
4279;DHT22;2153;47.744;10.580;2022-08-19T10:21:04;16.80;99.90
4279;DHT22;2153;47.744;10.580;2022-08-19T10:23:35;16.80;99.90
4279;DHT22;2153;47.744;10.580;2022-08-19T10:26:03;16.90;99.90
4279;DHT22;2153;47.744;10.580;2022-08-19T10:28:31;16.90;99.90
4279;DHT22;2153;47.744;10.580;2022-08-19T10:31:02;16.80;99.90
4279;DHT22;2153;47.744;10.580;2022-08-19T10:33:29;16.80;99.90
4279;DHT22;2153;47.744;10.580;2022-08-19T10:35:59;16.80;99.90
4279;DHT22;2153;47.744;10.580;2022-08-19T10:38:26;16.80;99.90
4279;DHT22;2153;47.744;10.580;2022-08-19T10:40:55;16.80;99.90
4279;DHT22;2153;47.744;10.580;2022-08-19T10:43:22;16.80;99.90
4279;DHT22;2153;47.744;10.580;2022-08-19T10:45:52;16.80;99.90
4279;DHT22;2153;47.744;10.580;2022-08-19T10:48:23;16.70;99.90
4279;DHT22;2153;47.744;10.580;2022-08-19T10:50:50;16.70;99.90
4279;DHT22;2153;47.744;10.580;2022-08-19T10:53:34;16.70;99.90
4279;DHT22;2153;47.744;10.580;2022-08-19T10:56:02;16.60;99.90
4279;DHT22;2153;47.744;10.580;2022-08-19T10:58:47;16.70;99.90
4279;DHT22;2153;47.744;10.580;2022-08-19T11:01:14;16.60;99.90
4279;DHT22;2153;47.744;10.580;2022-08-19T11:03:41;16.60;99.90
4279;DHT22;2153;47.744;10.580;2022-08-19T11:06:08;16.60;99.90
4279;DHT22;2153;47.744;10.580;2022-08-19T11:08:36;16.60;99.90
4279;DHT22;2153;47.744;10.580;2022-08-19T11:11:06;16.60;99.90
4279;DHT22;2153;47.744;10.580;2022-08-19T11:13:36;16.60;99.90
4279;DHT22;2153;47.744;10.580;2022-08-19T11:16:06;16.50;99.90
4279;DHT22;2153;47.744;10.580;2022-08-19T11:18:35;16.50;99.90
4279;DHT22;2153;47.744;10.580;2022-08-19T11:21:06;16.60;99.90
4279;DHT22;2153;47.744;10.580;2022-08-19T11:23:33;16.60;99.90
4279;DHT22;2153;47.744;10.580;2022-08-19T11:26:00;16.60;99.90
4279;DHT22;2153;47.744;10.580;2022-08-19T11:28:29;16.60;99.90
4279;DHT22;2153;47.744;10.580;2022-08-19T11:30:55;16.60;99.90
4279;DHT22;2153;47.744;10.580;2022-08-19T11:33:22;16.60;99.90
4279;DHT22;2153;47.744;10.580;2022-08-19T11:35:51;16.70;99.90
4279;DHT22;2153;47.744;10.580;2022-08-19T11:38:18;16.70;99.90
4279;DHT22;2153;47.744;10.580;2022-08-19T11:40:45;16.80;99.90
4279;DHT22;2153;47.744;10.580;2022-08-19T11:43:19;16.80;99.90
4279;DHT22;2153;47.744;10.580;2022-08-19T11:45:47;16.90;99.90
4279;DHT22;2153;47.744;10.580;2022-08-19T11:48:14;17.10;99.90
4279;DHT22;2153;47.744;10.580;2022-08-19T11:50:41;17.10;99.90
4279;DHT22;2153;47.744;10.580;2022-08-19T11:53:09;17.10;99.90
4279;DHT22;2153;47.744;10.580;2022-08-19T11:55:37;17.10;99.90
4279;DHT22;2153;47.744;10.580;2022-08-19T11:58:04;17.00;99.90
4279;DHT22;2153;47.744;10.580;2022-08-19T12:00:32;17.00;99.90
4279;DHT22;2153;47.744;10.580;2022-08-19T12:03:00;16.90;99.90
4279;DHT22;2153;47.744;10.580;2022-08-19T12:05:27;16.90;99.90
4279;DHT22;2153;47.744;10.580;2022-08-19T12:07:54;16.90;99.90
4279;DHT22;2153;47.744;10.580;2022-08-19T12:10:22;16.90;99.90
4279;DHT22;2153;47.744;10.580;2022-08-19T12:12:49;17.00;99.90
4279;DHT22;2153;47.744;10.580;2022-08-19T12:15:16;17.10;99.90
4279;DHT22;2153;47.744;10.580;2022-08-19T12:17:43;17.10;99.90
4279;DHT22;2153;47.744;10.580;2022-08-19T12:20:12;17.10;99.90
4279;DHT22;2153;47.744;10.580;2022-08-19T12:22:41;17.10;99.90
4279;DHT22;2153;47.744;10.580;2022-08-19T12:25:09;17.00;99.90
4279;DHT22;2153;47.744;10.580;2022-08-19T12:27:36;16.90;99.90
4279;DHT22;2153;47.744;10.580;2022-08-19T12:30:04;16.90;99.90
4279;DHT22;2153;47.744;10.580;2022-08-19T12:32:31;16.90;99.90
4279;DHT22;2153;47.744;10.580;2022-08-19T12:34:58;16.90;99.90
4279;DHT22;2153;47.744;10.580;2022-08-19T12:37:26;16.90;99.90
4279;DHT22;2153;47.744;10.580;2022-08-19T12:39:53;16.90;99.90
4279;DHT22;2153;47.744;10.580;2022-08-19T12:42:19;16.90;99.90
4279;DHT22;2153;47.744;10.580;2022-08-19T12:44:47;16.80;99.90
4279;DHT22;2153;47.744;10.580;2022-08-19T12:47:14;16.90;99.90
4279;DHT22;2153;47.744;10.580;2022-08-19T12:49:42;17.00;99.90
4279;DHT22;2153;47.744;10.580;2022-08-19T12:52:10;17.10;99.90
4279;DHT22;2153;47.744;10.580;2022-08-19T12:54:42;17.30;99.90
4279;DHT22;2153;47.744;10.580;2022-08-19T12:57:10;17.40;99.90
4279;DHT22;2153;47.744;10.580;2022-08-19T12:59:37;17.50;99.90
4279;DHT22;2153;47.744;10.580;2022-08-19T13:02:05;17.50;99.90
4279;DHT22;2153;47.744;10.580;2022-08-19T13:04:33;17.50;99.90
4279;DHT22;2153;47.744;10.580;2022-08-19T13:07:01;17.50;99.90
4279;DHT22;2153;47.744;10.580;2022-08-19T13:09:28;17.50;99.90
4279;DHT22;2153;47.744;10.580;2022-08-19T13:11:56;17.60;99.90
4279;DHT22;2153;47.744;10.580;2022-08-19T13:14:23;17.70;99.90
4279;DHT22;2153;47.744;10.580;2022-08-19T13:16:49;17.80;99.90
4279;DHT22;2153;47.744;10.580;2022-08-19T13:19:16;17.90;99.90
4279;DHT22;2153;47.744;10.580;2022-08-19T13:21:49;18.10;99.90
4279;DHT22;2153;47.744;10.580;2022-08-19T13:24:16;18.20;99.90
4279;DHT22;2153;47.744;10.580;2022-08-19T13:26:43;18.20;99.90
4279;DHT22;2153;47.744;10.580;2022-08-19T13:29:11;18.30;99.90
4279;DHT22;2153;47.744;10.580;2022-08-19T13:31:55;18.50;99.90
4279;DHT22;2153;47.744;10.580;2022-08-19T13:34:39;18.80;99.90
4279;DHT22;2153;47.744;10.580;2022-08-19T13:37:06;19.00;99.90
4279;DHT22;2153;47.744;10.580;2022-08-19T13:39:34;19.30;99.90
4279;DHT22;2153;47.744;10.580;2022-08-19T13:42:01;19.30;99.90
4279;DHT22;2153;47.744;10.580;2022-08-19T13:44:31;19.30;99.90
4279;DHT22;2153;47.744;10.580;2022-08-19T13:47:01;19.10;99.90
4279;DHT22;2153;47.744;10.580;2022-08-19T13:49:31;19.00;99.90
4279;DHT22;2153;47.744;10.580;2022-08-19T13:51:57;19.00;99.90
4279;DHT22;2153;47.744;10.580;2022-08-19T13:54:24;18.90;99.90
4279;DHT22;2153;47.744;10.580;2022-08-19T13:56:52;18.70;99.90
4279;DHT22;2153;47.744;10.580;2022-08-19T13:59:19;18.60;99.90
4279;DHT22;2153;47.744;10.580;2022-08-19T14:01:47;18.60;99.90
4279;DHT22;2153;47.744;10.580;2022-08-19T14:04:14;18.70;99.90
4279;DHT22;2153;47.744;10.580;2022-08-19T14:06:40;18.70;99.90
4279;DHT22;2153;47.744;10.580;2022-08-19T14:09:07;18.80;99.90
4279;DHT22;2153;47.744;10.580;2022-08-19T14:11:34;19.00;99.90
4279;DHT22;2153;47.744;10.580;2022-08-19T14:14:00;19.10;99.90
4279;DHT22;2153;47.744;10.580;2022-08-19T14:16:27;19.10;99.90
4279;DHT22;2153;47.744;10.580;2022-08-19T14:18:57;19.10;99.90
4279;DHT22;2153;47.744;10.580;2022-08-19T14:21:24;19.40;99.90
4279;DHT22;2153;47.744;10.580;2022-08-19T14:23:52;19.60;99.90
4279;DHT22;2153;47.744;10.580;2022-08-19T14:26:20;19.60;99.90
4279;DHT22;2153;47.744;10.580;2022-08-19T14:28:47;19.40;99.90
4279;DHT22;2153;47.744;10.580;2022-08-19T14:31:16;19.20;99.90
4279;DHT22;2153;47.744;10.580;2022-08-19T14:33:44;19.00;99.90
4279;DHT22;2153;47.744;10.580;2022-08-19T14:36:13;18.60;99.90
4279;DHT22;2153;47.744;10.580;2022-08-19T14:38:39;18.40;99.90
4279;DHT22;2153;47.744;10.580;2022-08-19T14:41:09;18.20;99.90
4279;DHT22;2153;47.744;10.580;2022-08-19T14:43:36;18.10;99.90
4279;DHT22;2153;47.744;10.580;2022-08-19T14:46:04;18.00;99.90
4279;DHT22;2153;47.744;10.580;2022-08-19T14:48:30;18.00;99.90
4279;DHT22;2153;47.744;10.580;2022-08-19T14:50:57;18.00;99.90
4279;DHT22;2153;47.744;10.580;2022-08-19T14:53:25;18.10;99.90
4279;DHT22;2153;47.744;10.580;2022-08-19T14:55:52;18.10;99.90
4279;DHT22;2153;47.744;10.580;2022-08-19T14:58:19;18.10;99.90
4279;DHT22;2153;47.744;10.580;2022-08-19T15:00:46;18.20;99.90
4279;DHT22;2153;47.744;10.580;2022-08-19T15:03:13;18.20;99.90
4279;DHT22;2153;47.744;10.580;2022-08-19T15:05:39;18.30;99.90
4279;DHT22;2153;47.744;10.580;2022-08-19T15:08:06;18.30;99.90
4279;DHT22;2153;47.744;10.580;2022-08-19T15:10:34;18.30;99.90
4279;DHT22;2153;47.744;10.580;2022-08-19T15:13:01;18.40;99.90
4279;DHT22;2153;47.744;10.580;2022-08-19T15:15:28;18.40;99.90
4279;DHT22;2153;47.744;10.580;2022-08-19T15:17:55;18.40;99.90
4279;DHT22;2153;47.744;10.580;2022-08-19T15:20:28;18.30;99.90
4279;DHT22;2153;47.744;10.580;2022-08-19T15:22:57;18.10;99.90
4279;DHT22;2153;47.744;10.580;2022-08-19T15:25:24;18.10;99.90
4279;DHT22;2153;47.744;10.580;2022-08-19T15:27:53;18.00;99.90
4279;DHT22;2153;47.744;10.580;2022-08-19T15:30:23;18.10;99.90
4279;DHT22;2153;47.744;10.580;2022-08-19T15:32:50;18.10;99.90
4279;DHT22;2153;47.744;10.580;2022-08-19T15:35:21;18.10;99.90
4279;DHT22;2153;47.744;10.580;2022-08-19T15:37:49;18.10;99.90
4279;DHT22;2153;47.744;10.580;2022-08-19T15:40:16;18.10;99.90
4279;DHT22;2153;47.744;10.580;2022-08-19T15:42:43;18.10;99.90
4279;DHT22;2153;47.744;10.580;2022-08-19T15:45:12;18.00;99.90
4279;DHT22;2153;47.744;10.580;2022-08-19T15:47:40;17.90;99.90
4279;DHT22;2153;47.744;10.580;2022-08-19T15:50:09;17.90;99.90
4279;DHT22;2153;47.744;10.580;2022-08-19T15:52:42;17.80;99.90